sensor_id;sensor_type;location;lat;lon;timestamp;P1;durP1;ratioP1;P2;durP2;ratioP2
1366;SDS011;16877;48.810;9.282;2023-12-28T00:00:26;5.50;;;3.00;;
1366;SDS011;16877;48.810;9.282;2023-12-28T00:02:53;3.60;;;2.80;;
1366;SDS011;16877;48.810;9.282;2023-12-28T00:05:20;4.40;;;2.83;;
1366;SDS011;16877;48.810;9.282;2023-12-28T00:07:46;4.10;;;2.50;;
1366;SDS011;16877;48.810;9.282;2023-12-28T00:10:14;4.23;;;2.73;;
1366;SDS011;16877;48.810;9.282;2023-12-28T00:12:42;3.93;;;2.70;;
1366;SDS011;16877;48.810;9.282;2023-12-28T00:15:09;3.63;;;2.50;;
1366;SDS011;16877;48.810;9.282;2023-12-28T00:17:35;4.47;;;2.23;;
1366;SDS011;16877;48.810;9.282;2023-12-28T00:20:02;3.97;;;3.10;;
1366;SDS011;16877;48.810;9.282;2023-12-28T00:22:30;3.00;;;2.13;;
1366;SDS011;16877;48.810;9.282;2023-12-28T00:24:56;3.90;;;2.37;;
1366;SDS011;16877;48.810;9.282;2023-12-28T00:27:23;4.20;;;2.60;;
1366;SDS011;16877;48.810;9.282;2023-12-28T00:29:51;3.03;;;2.03;;
1366;SDS011;16877;48.810;9.282;2023-12-28T00:32:17;3.50;;;2.40;;
1366;SDS011;16877;48.810;9.282;2023-12-28T00:34:44;4.10;;;2.73;;
1366;SDS011;16877;48.810;9.282;2023-12-28T00:37:11;3.37;;;2.30;;
1366;SDS011;16877;48.810;9.282;2023-12-28T00:39:37;4.30;;;2.00;;
1366;SDS011;16877;48.810;9.282;2023-12-28T00:42:05;4.63;;;2.87;;
1366;SDS011;16877;48.810;9.282;2023-12-28T00:44:32;4.10;;;2.67;;
1366;SDS011;16877;48.810;9.282;2023-12-28T00:47:00;4.10;;;2.83;;
1366;SDS011;16877;48.810;9.282;2023-12-28T00:49:27;3.97;;;2.73;;
1366;SDS011;16877;48.810;9.282;2023-12-28T00:51:53;3.17;;;2.00;;
1366;SDS011;16877;48.810;9.282;2023-12-28T00:54:20;3.70;;;2.40;;
1366;SDS011;16877;48.810;9.282;2023-12-28T00:56:47;3.27;;;2.13;;
1366;SDS011;16877;48.810;9.282;2023-12-28T00:59:13;3.73;;;2.30;;
1366;SDS011;16877;48.810;9.282;2023-12-28T01:01:40;4.03;;;2.30;;
1366;SDS011;16877;48.810;9.282;2023-12-28T01:04:08;3.33;;;2.30;;
1366;SDS011;16877;48.810;9.282;2023-12-28T01:06:35;3.03;;;2.13;;
1366;SDS011;16877;48.810;9.282;2023-12-28T01:09:02;3.73;;;2.43;;
1366;SDS011;16877;48.810;9.282;2023-12-28T01:11:29;4.00;;;2.53;;
1366;SDS011;16877;48.810;9.282;2023-12-28T01:13:56;4.20;;;2.40;;
1366;SDS011;16877;48.810;9.282;2023-12-28T01:16:24;3.63;;;1.97;;
1366;SDS011;16877;48.810;9.282;2023-12-28T01:18:50;3.73;;;2.70;;
1366;SDS011;16877;48.810;9.282;2023-12-28T01:21:18;2.73;;;1.93;;
1366;SDS011;16877;48.810;9.282;2023-12-28T01:23:45;3.70;;;2.27;;
1366;SDS011;16877;48.810;9.282;2023-12-28T01:26:12;3.37;;;1.87;;
1366;SDS011;16877;48.810;9.282;2023-12-28T01:28:39;4.27;;;2.37;;
1366;SDS011;16877;48.810;9.282;2023-12-28T01:31:06;3.50;;;2.50;;
1366;SDS011;16877;48.810;9.282;2023-12-28T01:33:33;3.47;;;2.50;;
1366;SDS011;16877;48.810;9.282;2023-12-28T01:36:00;4.23;;;2.70;;
1366;SDS011;16877;48.810;9.282;2023-12-28T01:38:28;3.60;;;2.20;;
1366;SDS011;16877;48.810;9.282;2023-12-28T01:40:55;4.20;;;2.33;;
1366;SDS011;16877;48.810;9.282;2023-12-28T01:43:22;2.83;;;1.90;;
1366;SDS011;16877;48.810;9.282;2023-12-28T01:45:48;3.47;;;2.30;;
1366;SDS011;16877;48.810;9.282;2023-12-28T01:48:15;3.00;;;1.97;;
1366;SDS011;16877;48.810;9.282;2023-12-28T01:50:43;3.37;;;2.00;;
1366;SDS011;16877;48.810;9.282;2023-12-28T01:53:09;4.00;;;2.77;;
1366;SDS011;16877;48.810;9.282;2023-12-28T01:55:38;3.30;;;2.40;;
1366;SDS011;16877;48.810;9.282;2023-12-28T01:58:04;3.43;;;2.00;;
1366;SDS011;16877;48.810;9.282;2023-12-28T02:00:31;3.30;;;2.23;;
1366;SDS011;16877;48.810;9.282;2023-12-28T02:03:02;3.43;;;2.40;;
1366;SDS011;16877;48.810;9.282;2023-12-28T02:05:29;3.23;;;2.20;;
1366;SDS011;16877;48.810;9.282;2023-12-28T02:07:56;4.03;;;2.70;;
1366;SDS011;16877;48.810;9.282;2023-12-28T02:10:22;3.03;;;1.80;;
1366;SDS011;16877;48.810;9.282;2023-12-28T02:12:50;3.13;;;1.90;;
1366;SDS011;16877;48.810;9.282;2023-12-28T02:15:18;3.40;;;2.40;;
1366;SDS011;16877;48.810;9.282;2023-12-28T02:17:46;3.50;;;2.23;;
1366;SDS011;16877;48.810;9.282;2023-12-28T02:20:16;3.50;;;2.43;;
1366;SDS011;16877;48.810;9.282;2023-12-28T02:22:45;3.50;;;2.60;;
1366;SDS011;16877;48.810;9.282;2023-12-28T02:25:14;4.53;;;2.50;;
1366;SDS011;16877;48.810;9.282;2023-12-28T02:27:41;4.90;;;2.40;;
1366;SDS011;16877;48.810;9.282;2023-12-28T02:30:09;3.67;;;2.40;;
1366;SDS011;16877;48.810;9.282;2023-12-28T02:32:42;3.20;;;2.30;;
1366;SDS011;16877;48.810;9.282;2023-12-28T02:35:14;3.00;;;2.07;;
1366;SDS011;16877;48.810;9.282;2023-12-28T02:37:46;3.20;;;2.13;;
1366;SDS011;16877;48.810;9.282;2023-12-28T02:40:16;3.90;;;2.13;;
1366;SDS011;16877;48.810;9.282;2023-12-28T02:42:43;4.07;;;2.40;;
1366;SDS011;16877;48.810;9.282;2023-12-28T02:45:10;3.60;;;2.53;;
1366;SDS011;16877;48.810;9.282;2023-12-28T02:47:37;3.80;;;2.30;;
1366;SDS011;16877;48.810;9.282;2023-12-28T02:50:04;3.03;;;2.30;;
1366;SDS011;16877;48.810;9.282;2023-12-28T02:52:31;3.30;;;2.60;;
1366;SDS011;16877;48.810;9.282;2023-12-28T02:54:58;3.40;;;2.30;;
1366;SDS011;16877;48.810;9.282;2023-12-28T02:57:26;3.07;;;2.17;;
1366;SDS011;16877;48.810;9.282;2023-12-28T02:59:53;3.07;;;1.87;;
1366;SDS011;16877;48.810;9.282;2023-12-28T03:02:21;2.87;;;2.27;;
1366;SDS011;16877;48.810;9.282;2023-12-28T03:04:48;3.13;;;2.17;;
1366;SDS011;16877;48.810;9.282;2023-12-28T03:07:15;3.13;;;2.47;;
1366;SDS011;16877;48.810;9.282;2023-12-28T03:09:41;3.00;;;2.00;;
1366;SDS011;16877;48.810;9.282;2023-12-28T03:12:08;3.43;;;2.23;;
1366;SDS011;16877;48.810;9.282;2023-12-28T03:14:36;5.13;;;2.10;;
1366;SDS011;16877;48.810;9.282;2023-12-28T03:17:03;3.07;;;2.10;;
1366;SDS011;16877;48.810;9.282;2023-12-28T03:19:29;3.03;;;2.10;;
1366;SDS011;16877;48.810;9.282;2023-12-28T03:21:56;3.10;;;2.00;;
1366;SDS011;16877;48.810;9.282;2023-12-28T03:24:23;3.00;;;1.97;;
1366;SDS011;16877;48.810;9.282;2023-12-28T03:26:50;3.20;;;2.13;;
1366;SDS011;16877;48.810;9.282;2023-12-28T03:29:16;3.13;;;2.10;;
1366;SDS011;16877;48.810;9.282;2023-12-28T03:31:44;3.97;;;2.30;;
1366;SDS011;16877;48.810;9.282;2023-12-28T03:34:11;3.10;;;2.10;;
1366;SDS011;16877;48.810;9.282;2023-12-28T03:36:38;3.87;;;2.40;;
1366;SDS011;16877;48.810;9.282;2023-12-28T03:39:05;3.67;;;2.17;;
1366;SDS011;16877;48.810;9.282;2023-12-28T03:41:32;3.03;;;1.90;;
1366;SDS011;16877;48.810;9.282;2023-12-28T03:43:58;3.33;;;2.30;;
1366;SDS011;16877;48.810;9.282;2023-12-28T03:46:25;2.53;;;1.70;;
1366;SDS011;16877;48.810;9.282;2023-12-28T03:48:53;2.93;;;1.87;;
1366;SDS011;16877;48.810;9.282;2023-12-28T03:51:20;2.30;;;1.70;;
1366;SDS011;16877;48.810;9.282;2023-12-28T03:53:47;4.83;;;2.10;;
1366;SDS011;16877;48.810;9.282;2023-12-28T03:56:23;3.80;;;2.30;;
1366;SDS011;16877;48.810;9.282;2023-12-28T03:58:50;4.30;;;2.13;;
1366;SDS011;16877;48.810;9.282;2023-12-28T04:01:17;3.10;;;2.00;;
1366;SDS011;16877;48.810;9.282;2023-12-28T04:03:45;4.47;;;2.27;;
1366;SDS011;16877;48.810;9.282;2023-12-28T04:06:14;3.00;;;2.17;;
1366;SDS011;16877;48.810;9.282;2023-12-28T04:08:41;3.17;;;2.13;;
1366;SDS011;16877;48.810;9.282;2023-12-28T04:11:08;3.80;;;2.37;;
1366;SDS011;16877;48.810;9.282;2023-12-28T04:13:35;3.20;;;1.80;;
1366;SDS011;16877;48.810;9.282;2023-12-28T04:16:04;3.30;;;1.97;;
1366;SDS011;16877;48.810;9.282;2023-12-28T04:18:31;4.37;;;1.57;;
1366;SDS011;16877;48.810;9.282;2023-12-28T04:20:58;3.40;;;2.00;;
1366;SDS011;16877;48.810;9.282;2023-12-28T04:23:26;3.20;;;2.10;;
1366;SDS011;16877;48.810;9.282;2023-12-28T04:25:52;4.33;;;2.67;;
1366;SDS011;16877;48.810;9.282;2023-12-28T04:28:19;3.20;;;1.77;;
1366;SDS011;16877;48.810;9.282;2023-12-28T04:30:46;3.20;;;2.00;;
1366;SDS011;16877;48.810;9.282;2023-12-28T04:33:12;4.40;;;2.50;;
1366;SDS011;16877;48.810;9.282;2023-12-28T04:35:42;3.50;;;2.00;;
1366;SDS011;16877;48.810;9.282;2023-12-28T04:38:09;3.50;;;2.07;;
1366;SDS011;16877;48.810;9.282;2023-12-28T04:40:37;4.77;;;2.80;;
1366;SDS011;16877;48.810;9.282;2023-12-28T04:43:04;4.03;;;1.97;;
1366;SDS011;16877;48.810;9.282;2023-12-28T04:45:31;3.17;;;1.97;;
1366;SDS011;16877;48.810;9.282;2023-12-28T04:47:58;3.17;;;2.00;;
1366;SDS011;16877;48.810;9.282;2023-12-28T04:50:25;2.97;;;2.00;;
1366;SDS011;16877;48.810;9.282;2023-12-28T04:52:52;3.57;;;2.20;;
1366;SDS011;16877;48.810;9.282;2023-12-28T04:55:19;3.37;;;2.23;;
1366;SDS011;16877;48.810;9.282;2023-12-28T04:57:47;2.93;;;2.07;;
1366;SDS011;16877;48.810;9.282;2023-12-28T05:00:14;2.97;;;2.20;;
1366;SDS011;16877;48.810;9.282;2023-12-28T05:02:41;3.10;;;2.00;;
1366;SDS011;16877;48.810;9.282;2023-12-28T05:05:08;6.53;;;2.00;;
1366;SDS011;16877;48.810;9.282;2023-12-28T05:07:37;3.40;;;1.83;;
1366;SDS011;16877;48.810;9.282;2023-12-28T05:10:04;3.50;;;1.97;;
1366;SDS011;16877;48.810;9.282;2023-12-28T05:12:31;2.97;;;1.77;;
1366;SDS011;16877;48.810;9.282;2023-12-28T05:15:00;3.47;;;2.20;;
1366;SDS011;16877;48.810;9.282;2023-12-28T05:17:27;3.63;;;1.90;;
1366;SDS011;16877;48.810;9.282;2023-12-28T05:19:53;3.50;;;2.20;;
1366;SDS011;16877;48.810;9.282;2023-12-28T05:22:21;3.10;;;2.13;;
1366;SDS011;16877;48.810;9.282;2023-12-28T05:24:47;3.13;;;2.20;;
1366;SDS011;16877;48.810;9.282;2023-12-28T05:27:14;4.20;;;2.27;;
1366;SDS011;16877;48.810;9.282;2023-12-28T05:29:41;2.87;;;1.87;;
1366;SDS011;16877;48.810;9.282;2023-12-28T05:32:09;2.87;;;1.90;;
1366;SDS011;16877;48.810;9.282;2023-12-28T05:34:36;3.80;;;1.90;;
1366;SDS011;16877;48.810;9.282;2023-12-28T05:37:04;3.40;;;2.30;;
1366;SDS011;16877;48.810;9.282;2023-12-28T05:39:31;4.20;;;1.87;;
1366;SDS011;16877;48.810;9.282;2023-12-28T05:41:58;3.03;;;1.80;;
1366;SDS011;16877;48.810;9.282;2023-12-28T05:44:24;3.27;;;1.90;;
1366;SDS011;16877;48.810;9.282;2023-12-28T05:46:51;3.17;;;1.70;;
1366;SDS011;16877;48.810;9.282;2023-12-28T05:49:19;3.63;;;2.07;;
1366;SDS011;16877;48.810;9.282;2023-12-28T05:51:46;5.30;;;1.90;;
1366;SDS011;16877;48.810;9.282;2023-12-28T05:54:13;3.10;;;1.83;;
1366;SDS011;16877;48.810;9.282;2023-12-28T05:56:40;3.97;;;1.93;;
1366;SDS011;16877;48.810;9.282;2023-12-28T05:59:06;3.07;;;1.80;;
1366;SDS011;16877;48.810;9.282;2023-12-28T06:01:40;3.10;;;1.87;;
1366;SDS011;16877;48.810;9.282;2023-12-28T06:04:08;2.60;;;1.70;;
1366;SDS011;16877;48.810;9.282;2023-12-28T06:06:36;3.10;;;1.87;;
1366;SDS011;16877;48.810;9.282;2023-12-28T06:09:02;3.07;;;1.60;;
1366;SDS011;16877;48.810;9.282;2023-12-28T06:11:29;3.43;;;1.67;;
1366;SDS011;16877;48.810;9.282;2023-12-28T06:13:56;3.60;;;2.00;;
1366;SDS011;16877;48.810;9.282;2023-12-28T06:16:23;5.47;;;2.37;;
1366;SDS011;16877;48.810;9.282;2023-12-28T06:18:50;3.60;;;2.33;;
1366;SDS011;16877;48.810;9.282;2023-12-28T06:21:17;3.60;;;2.40;;
1366;SDS011;16877;48.810;9.282;2023-12-28T06:23:45;3.00;;;1.93;;
1366;SDS011;16877;48.810;9.282;2023-12-28T06:26:12;3.23;;;1.93;;
1366;SDS011;16877;48.810;9.282;2023-12-28T06:28:39;3.10;;;2.27;;
1366;SDS011;16877;48.810;9.282;2023-12-28T06:31:06;2.83;;;1.60;;
1366;SDS011;16877;48.810;9.282;2023-12-28T06:33:32;2.87;;;1.90;;
1366;SDS011;16877;48.810;9.282;2023-12-28T06:36:04;3.13;;;2.10;;
1366;SDS011;16877;48.810;9.282;2023-12-28T06:38:31;2.90;;;2.00;;
1366;SDS011;16877;48.810;9.282;2023-12-28T06:40:59;4.20;;;2.70;;
1366;SDS011;16877;48.810;9.282;2023-12-28T06:43:26;3.17;;;2.10;;
1366;SDS011;16877;48.810;9.282;2023-12-28T06:45:53;3.83;;;2.20;;
1366;SDS011;16877;48.810;9.282;2023-12-28T06:48:20;4.20;;;2.43;;
1366;SDS011;16877;48.810;9.282;2023-12-28T06:50:46;6.53;;;2.70;;
1366;SDS011;16877;48.810;9.282;2023-12-28T06:53:13;3.07;;;2.03;;
1366;SDS011;16877;48.810;9.282;2023-12-28T06:55:40;3.67;;;2.53;;
1366;SDS011;16877;48.810;9.282;2023-12-28T06:58:08;3.40;;;2.20;;
1366;SDS011;16877;48.810;9.282;2023-12-28T07:00:35;3.83;;;2.20;;
1366;SDS011;16877;48.810;9.282;2023-12-28T07:03:01;2.90;;;1.87;;
1366;SDS011;16877;48.810;9.282;2023-12-28T07:05:28;2.90;;;1.90;;
1366;SDS011;16877;48.810;9.282;2023-12-28T07:07:55;2.80;;;2.13;;
1366;SDS011;16877;48.810;9.282;2023-12-28T07:10:21;3.17;;;2.30;;
1366;SDS011;16877;48.810;9.282;2023-12-28T07:12:48;2.70;;;1.93;;
1366;SDS011;16877;48.810;9.282;2023-12-28T07:15:16;3.13;;;1.93;;
1366;SDS011;16877;48.810;9.282;2023-12-28T07:17:43;3.70;;;1.80;;
1366;SDS011;16877;48.810;9.282;2023-12-28T07:20:10;3.70;;;2.07;;
1366;SDS011;16877;48.810;9.282;2023-12-28T07:22:37;4.30;;;2.30;;
1366;SDS011;16877;48.810;9.282;2023-12-28T07:25:04;3.50;;;2.37;;
1366;SDS011;16877;48.810;9.282;2023-12-28T07:27:31;3.00;;;2.20;;
1366;SDS011;16877;48.810;9.282;2023-12-28T07:29:59;3.40;;;2.20;;
1366;SDS011;16877;48.810;9.282;2023-12-28T07:32:27;3.50;;;2.50;;
1366;SDS011;16877;48.810;9.282;2023-12-28T07:34:55;4.10;;;2.77;;
1366;SDS011;16877;48.810;9.282;2023-12-28T07:37:24;4.40;;;3.00;;
1366;SDS011;16877;48.810;9.282;2023-12-28T07:39:51;5.10;;;3.20;;
1366;SDS011;16877;48.810;9.282;2023-12-28T07:42:19;3.97;;;3.00;;
1366;SDS011;16877;48.810;9.282;2023-12-28T07:44:46;4.53;;;3.17;;
1366;SDS011;16877;48.810;9.282;2023-12-28T07:47:13;4.53;;;2.97;;
1366;SDS011;16877;48.810;9.282;2023-12-28T07:49:41;4.50;;;2.83;;
1366;SDS011;16877;48.810;9.282;2023-12-28T07:52:08;3.60;;;2.87;;
1366;SDS011;16877;48.810;9.282;2023-12-28T07:54:35;5.07;;;3.00;;
1366;SDS011;16877;48.810;9.282;2023-12-28T07:57:01;4.40;;;3.17;;
1366;SDS011;16877;48.810;9.282;2023-12-28T07:59:28;3.80;;;2.80;;
1366;SDS011;16877;48.810;9.282;2023-12-28T08:01:55;4.00;;;2.80;;
1366;SDS011;16877;48.810;9.282;2023-12-28T08:04:22;4.70;;;3.13;;
1366;SDS011;16877;48.810;9.282;2023-12-28T08:06:51;3.57;;;2.80;;
1366;SDS011;16877;48.810;9.282;2023-12-28T08:09:17;3.43;;;2.43;;
1366;SDS011;16877;48.810;9.282;2023-12-28T08:11:44;5.57;;;3.27;;
1366;SDS011;16877;48.810;9.282;2023-12-28T08:14:11;4.70;;;2.90;;
1366;SDS011;16877;48.810;9.282;2023-12-28T08:16:38;5.20;;;3.20;;
1366;SDS011;16877;48.810;9.282;2023-12-28T08:19:05;4.67;;;3.03;;
1366;SDS011;16877;48.810;9.282;2023-12-28T08:21:32;8.23;;;3.50;;
1366;SDS011;16877;48.810;9.282;2023-12-28T08:24:01;4.60;;;3.03;;
1366;SDS011;16877;48.810;9.282;2023-12-28T08:26:28;4.73;;;3.10;;
1366;SDS011;16877;48.810;9.282;2023-12-28T08:28:55;3.63;;;2.60;;
1366;SDS011;16877;48.810;9.282;2023-12-28T08:31:22;5.50;;;3.10;;
1366;SDS011;16877;48.810;9.282;2023-12-28T08:33:49;5.53;;;3.07;;
1366;SDS011;16877;48.810;9.282;2023-12-28T08:36:15;4.63;;;3.00;;
1366;SDS011;16877;48.810;9.282;2023-12-28T08:38:43;4.67;;;3.20;;
1366;SDS011;16877;48.810;9.282;2023-12-28T08:41:18;4.53;;;3.00;;
1366;SDS011;16877;48.810;9.282;2023-12-28T08:43:45;4.63;;;3.00;;
1366;SDS011;16877;48.810;9.282;2023-12-28T08:46:12;3.70;;;2.67;;
1366;SDS011;16877;48.810;9.282;2023-12-28T08:48:39;3.90;;;2.97;;
1366;SDS011;16877;48.810;9.282;2023-12-28T08:51:06;5.60;;;3.30;;
1366;SDS011;16877;48.810;9.282;2023-12-28T08:53:32;5.70;;;2.80;;
1366;SDS011;16877;48.810;9.282;2023-12-28T08:55:59;4.20;;;2.80;;
1366;SDS011;16877;48.810;9.282;2023-12-28T08:58:27;3.33;;;2.63;;
1366;SDS011;16877;48.810;9.282;2023-12-28T09:00:54;8.30;;;3.80;;
1366;SDS011;16877;48.810;9.282;2023-12-28T09:03:21;4.03;;;2.97;;
1366;SDS011;16877;48.810;9.282;2023-12-28T09:05:48;5.03;;;4.00;;
1366;SDS011;16877;48.810;9.282;2023-12-28T09:08:14;5.40;;;4.00;;
1366;SDS011;16877;48.810;9.282;2023-12-28T09:10:41;6.73;;;5.07;;
1366;SDS011;16877;48.810;9.282;2023-12-28T09:13:14;6.63;;;4.43;;
1366;SDS011;16877;48.810;9.282;2023-12-28T09:15:43;7.90;;;4.67;;
1366;SDS011;16877;48.810;9.282;2023-12-28T09:18:11;6.60;;;4.37;;
1366;SDS011;16877;48.810;9.282;2023-12-28T09:20:38;4.90;;;4.27;;
1366;SDS011;16877;48.810;9.282;2023-12-28T09:23:05;5.77;;;4.30;;
1366;SDS011;16877;48.810;9.282;2023-12-28T09:25:32;5.73;;;4.80;;
1366;SDS011;16877;48.810;9.282;2023-12-28T09:27:59;6.80;;;5.20;;
1366;SDS011;16877;48.810;9.282;2023-12-28T09:30:26;6.40;;;4.90;;
1366;SDS011;16877;48.810;9.282;2023-12-28T09:32:54;6.33;;;5.20;;
1366;SDS011;16877;48.810;9.282;2023-12-28T09:35:21;6.70;;;5.60;;
1366;SDS011;16877;48.810;9.282;2023-12-28T09:37:50;7.40;;;5.30;;
1366;SDS011;16877;48.810;9.282;2023-12-28T09:40:17;6.60;;;5.10;;
1366;SDS011;16877;48.810;9.282;2023-12-28T09:42:46;5.87;;;5.20;;
1366;SDS011;16877;48.810;9.282;2023-12-28T09:45:19;6.03;;;5.27;;
1366;SDS011;16877;48.810;9.282;2023-12-28T09:47:46;6.40;;;4.70;;
1366;SDS011;16877;48.810;9.282;2023-12-28T09:50:17;6.20;;;4.70;;
1366;SDS011;16877;48.810;9.282;2023-12-28T09:52:44;6.00;;;4.43;;
1366;SDS011;16877;48.810;9.282;2023-12-28T09:55:11;5.43;;;4.43;;
1366;SDS011;16877;48.810;9.282;2023-12-28T09:57:38;6.10;;;4.00;;
1366;SDS011;16877;48.810;9.282;2023-12-28T10:00:07;4.50;;;3.33;;
1366;SDS011;16877;48.810;9.282;2023-12-28T10:02:37;7.00;;;4.30;;
1366;SDS011;16877;48.810;9.282;2023-12-28T10:05:05;5.70;;;3.80;;
1366;SDS011;16877;48.810;9.282;2023-12-28T10:07:35;4.97;;;3.33;;
1366;SDS011;16877;48.810;9.282;2023-12-28T10:10:07;6.70;;;3.40;;
1366;SDS011;16877;48.810;9.282;2023-12-28T10:12:35;4.63;;;3.20;;
1366;SDS011;16877;48.810;9.282;2023-12-28T10:15:02;7.40;;;3.30;;
1366;SDS011;16877;48.810;9.282;2023-12-28T10:17:31;4.67;;;3.57;;
1366;SDS011;16877;48.810;9.282;2023-12-28T10:19:59;5.27;;;3.70;;
1366;SDS011;16877;48.810;9.282;2023-12-28T10:22:29;4.13;;;3.23;;
1366;SDS011;16877;48.810;9.282;2023-12-28T10:24:58;4.20;;;3.37;;
1366;SDS011;16877;48.810;9.282;2023-12-28T10:27:25;4.50;;;3.70;;
1366;SDS011;16877;48.810;9.282;2023-12-28T10:29:52;6.73;;;3.77;;
1366;SDS011;16877;48.810;9.282;2023-12-28T10:32:20;5.77;;;3.50;;
1366;SDS011;16877;48.810;9.282;2023-12-28T10:34:48;7.07;;;4.10;;
1366;SDS011;16877;48.810;9.282;2023-12-28T10:37:15;5.80;;;3.57;;
1366;SDS011;16877;48.810;9.282;2023-12-28T10:39:45;4.00;;;2.70;;
1366;SDS011;16877;48.810;9.282;2023-12-28T10:42:16;5.53;;;3.53;;
1366;SDS011;16877;48.810;9.282;2023-12-28T10:44:49;4.90;;;3.27;;
1366;SDS011;16877;48.810;9.282;2023-12-28T10:47:21;4.43;;;3.40;;
1366;SDS011;16877;48.810;9.282;2023-12-28T10:49:51;5.67;;;3.73;;
1366;SDS011;16877;48.810;9.282;2023-12-28T10:52:21;5.30;;;3.47;;
1366;SDS011;16877;48.810;9.282;2023-12-28T10:54:57;5.70;;;4.20;;
1366;SDS011;16877;48.810;9.282;2023-12-28T10:57:29;4.50;;;3.80;;
1366;SDS011;16877;48.810;9.282;2023-12-28T11:00:07;5.60;;;4.20;;
1366;SDS011;16877;48.810;9.282;2023-12-28T11:02:38;4.60;;;4.17;;
1366;SDS011;16877;48.810;9.282;2023-12-28T11:05:07;5.40;;;4.23;;
1366;SDS011;16877;48.810;9.282;2023-12-28T11:07:34;6.30;;;4.77;;
1366;SDS011;16877;48.810;9.282;2023-12-28T11:10:02;5.23;;;3.73;;
1366;SDS011;16877;48.810;9.282;2023-12-28T11:12:31;7.10;;;4.80;;
1366;SDS011;16877;48.810;9.282;2023-12-28T11:15:00;6.10;;;4.33;;
1366;SDS011;16877;48.810;9.282;2023-12-28T11:17:30;6.63;;;5.10;;
1366;SDS011;16877;48.810;9.282;2023-12-28T11:19:57;6.60;;;5.07;;
1366;SDS011;16877;48.810;9.282;2023-12-28T11:22:24;7.73;;;4.83;;
1366;SDS011;16877;48.810;9.282;2023-12-28T11:24:52;7.43;;;5.00;;
1366;SDS011;16877;48.810;9.282;2023-12-28T11:27:19;6.73;;;4.83;;
1366;SDS011;16877;48.810;9.282;2023-12-28T11:29:48;5.73;;;4.00;;
1366;SDS011;16877;48.810;9.282;2023-12-28T11:32:17;6.30;;;5.00;;
1366;SDS011;16877;48.810;9.282;2023-12-28T11:34:45;6.23;;;4.60;;
1366;SDS011;16877;48.810;9.282;2023-12-28T11:37:22;7.83;;;4.87;;
1366;SDS011;16877;48.810;9.282;2023-12-28T11:39:52;7.03;;;4.37;;
1366;SDS011;16877;48.810;9.282;2023-12-28T11:42:19;4.93;;;4.00;;
1366;SDS011;16877;48.810;9.282;2023-12-28T11:44:53;4.57;;;3.73;;
1366;SDS011;16877;48.810;9.282;2023-12-28T11:47:21;6.93;;;4.10;;
1366;SDS011;16877;48.810;9.282;2023-12-28T11:49:48;6.33;;;4.00;;
1366;SDS011;16877;48.810;9.282;2023-12-28T11:52:23;7.43;;;4.10;;
1366;SDS011;16877;48.810;9.282;2023-12-28T11:54:50;5.10;;;4.40;;
1366;SDS011;16877;48.810;9.282;2023-12-28T11:57:17;6.23;;;4.57;;
1366;SDS011;16877;48.810;9.282;2023-12-28T11:59:43;6.17;;;4.90;;
1366;SDS011;16877;48.810;9.282;2023-12-28T12:02:11;5.73;;;4.10;;
1366;SDS011;16877;48.810;9.282;2023-12-28T12:04:39;5.63;;;4.23;;
1366;SDS011;16877;48.810;9.282;2023-12-28T12:07:06;5.17;;;4.20;;
1366;SDS011;16877;48.810;9.282;2023-12-28T12:09:32;7.87;;;5.03;;
1366;SDS011;16877;48.810;9.282;2023-12-28T12:12:00;6.03;;;4.33;;
1366;SDS011;16877;48.810;9.282;2023-12-28T12:14:27;6.47;;;4.93;;
1366;SDS011;16877;48.810;9.282;2023-12-28T12:16:56;5.13;;;3.93;;
1366;SDS011;16877;48.810;9.282;2023-12-28T12:19:24;5.13;;;4.13;;
1366;SDS011;16877;48.810;9.282;2023-12-28T12:21:51;5.90;;;4.40;;
1366;SDS011;16877;48.810;9.282;2023-12-28T12:24:18;4.90;;;3.70;;
1366;SDS011;16877;48.810;9.282;2023-12-28T12:26:45;7.23;;;4.30;;
1366;SDS011;16877;48.810;9.282;2023-12-28T12:29:12;7.33;;;4.70;;
1366;SDS011;16877;48.810;9.282;2023-12-28T12:31:39;7.00;;;5.00;;
1366;SDS011;16877;48.810;9.282;2023-12-28T12:34:07;6.07;;;4.60;;
1366;SDS011;16877;48.810;9.282;2023-12-28T12:36:36;5.50;;;4.30;;
1366;SDS011;16877;48.810;9.282;2023-12-28T12:39:03;5.40;;;4.50;;
1366;SDS011;16877;48.810;9.282;2023-12-28T12:41:31;6.07;;;4.70;;
1366;SDS011;16877;48.810;9.282;2023-12-28T12:43:58;6.27;;;5.20;;
1366;SDS011;16877;48.810;9.282;2023-12-28T12:46:25;6.50;;;4.93;;
1366;SDS011;16877;48.810;9.282;2023-12-28T12:48:55;9.00;;;5.53;;
1366;SDS011;16877;48.810;9.282;2023-12-28T12:51:22;6.40;;;5.03;;
1366;SDS011;16877;48.810;9.282;2023-12-28T12:53:55;6.23;;;4.50;;
1366;SDS011;16877;48.810;9.282;2023-12-28T12:56:22;5.87;;;4.33;;
1366;SDS011;16877;48.810;9.282;2023-12-28T12:58:49;6.47;;;4.60;;
1366;SDS011;16877;48.810;9.282;2023-12-28T13:01:16;7.10;;;4.73;;
1366;SDS011;16877;48.810;9.282;2023-12-28T13:03:43;5.80;;;4.50;;
1366;SDS011;16877;48.810;9.282;2023-12-28T13:06:11;4.63;;;3.67;;
1366;SDS011;16877;48.810;9.282;2023-12-28T13:08:38;6.97;;;4.63;;
1366;SDS011;16877;48.810;9.282;2023-12-28T13:11:06;5.93;;;3.63;;
1366;SDS011;16877;48.810;9.282;2023-12-28T13:13:33;6.40;;;3.63;;
1366;SDS011;16877;48.810;9.282;2023-12-28T13:16:00;6.13;;;4.00;;
1366;SDS011;16877;48.810;9.282;2023-12-28T13:18:27;5.97;;;3.90;;
1366;SDS011;16877;48.810;9.282;2023-12-28T13:20:54;6.17;;;3.80;;
1366;SDS011;16877;48.810;9.282;2023-12-28T13:23:21;4.87;;;3.40;;
1366;SDS011;16877;48.810;9.282;2023-12-28T13:25:48;6.27;;;3.70;;
1366;SDS011;16877;48.810;9.282;2023-12-28T13:28:17;5.27;;;3.53;;
1366;SDS011;16877;48.810;9.282;2023-12-28T13:30:44;4.57;;;3.30;;
1366;SDS011;16877;48.810;9.282;2023-12-28T13:33:11;4.70;;;3.37;;
1366;SDS011;16877;48.810;9.282;2023-12-28T13:35:38;5.80;;;4.03;;
1366;SDS011;16877;48.810;9.282;2023-12-28T13:38:05;3.53;;;2.90;;
1366;SDS011;16877;48.810;9.282;2023-12-28T13:40:31;5.10;;;3.50;;
1366;SDS011;16877;48.810;9.282;2023-12-28T13:42:58;4.63;;;2.87;;
1366;SDS011;16877;48.810;9.282;2023-12-28T13:45:26;4.67;;;3.00;;
1366;SDS011;16877;48.810;9.282;2023-12-28T13:47:53;3.20;;;2.50;;
1366;SDS011;16877;48.810;9.282;2023-12-28T13:50:20;4.83;;;3.10;;
1366;SDS011;16877;48.810;9.282;2023-12-28T13:52:47;5.17;;;3.30;;
1366;SDS011;16877;48.810;9.282;2023-12-28T13:55:13;3.63;;;2.70;;
1366;SDS011;16877;48.810;9.282;2023-12-28T13:57:40;3.80;;;2.40;;
1366;SDS011;16877;48.810;9.282;2023-12-28T14:00:08;4.30;;;3.00;;
1366;SDS011;16877;48.810;9.282;2023-12-28T14:02:37;3.20;;;2.23;;
1366;SDS011;16877;48.810;9.282;2023-12-28T14:05:05;3.63;;;3.00;;
1366;SDS011;16877;48.810;9.282;2023-12-28T14:07:32;4.50;;;2.97;;
1366;SDS011;16877;48.810;9.282;2023-12-28T14:09:59;4.37;;;2.97;;
1366;SDS011;16877;48.810;9.282;2023-12-28T14:12:25;4.40;;;2.40;;
1366;SDS011;16877;48.810;9.282;2023-12-28T14:14:52;3.87;;;2.60;;
1366;SDS011;16877;48.810;9.282;2023-12-28T14:17:19;3.90;;;2.43;;
1366;SDS011;16877;48.810;9.282;2023-12-28T14:19:48;3.90;;;2.70;;
1366;SDS011;16877;48.810;9.282;2023-12-28T14:22:15;2.70;;;1.87;;
1366;SDS011;16877;48.810;9.282;2023-12-28T14:24:42;3.67;;;2.40;;
1366;SDS011;16877;48.810;9.282;2023-12-28T14:27:09;4.40;;;2.50;;
1366;SDS011;16877;48.810;9.282;2023-12-28T14:29:37;3.40;;;2.13;;
1366;SDS011;16877;48.810;9.282;2023-12-28T14:32:05;3.43;;;2.37;;
1366;SDS011;16877;48.810;9.282;2023-12-28T14:34:32;3.80;;;2.00;;
1366;SDS011;16877;48.810;9.282;2023-12-28T14:37:00;3.40;;;2.00;;
1366;SDS011;16877;48.810;9.282;2023-12-28T14:39:28;3.07;;;2.20;;
1366;SDS011;16877;48.810;9.282;2023-12-28T14:41:55;4.73;;;2.37;;
1366;SDS011;16877;48.810;9.282;2023-12-28T14:44:23;3.10;;;1.97;;
1366;SDS011;16877;48.810;9.282;2023-12-28T14:46:49;3.63;;;1.83;;
1366;SDS011;16877;48.810;9.282;2023-12-28T14:49:16;3.20;;;1.70;;
1366;SDS011;16877;48.810;9.282;2023-12-28T14:51:43;2.80;;;1.73;;
1366;SDS011;16877;48.810;9.282;2023-12-28T14:54:11;3.13;;;1.83;;
1366;SDS011;16877;48.810;9.282;2023-12-28T14:56:38;3.50;;;2.10;;
1366;SDS011;16877;48.810;9.282;2023-12-28T14:59:04;4.33;;;2.53;;
1366;SDS011;16877;48.810;9.282;2023-12-28T15:01:31;4.23;;;2.33;;